Webcam op het Zuiden Meer informatie Webcam op het Zuiden


Webcam op het Westen Meer informatie Webcam op het Westen


Onweer radar Meer informatie blitzortung!


Regen radar  rain snow radar


Lokaal brand risico:
CBI


Regionaal brand risico: Meer informatie


Lokaal brand risico:
Gebaseerd op actuele waarde
CBI


Bezoek ook deze websites:

Template documentation
and downloads

And another site



Het weer levert geen direct gevaar op.    Er zijn geen waarschuwingen afgegeven.

METAR rapporten vliegvelden

   
ETWM - Meppen, Germany
Afstand tot: O 29 km
Gewijzigd: 18-01-2020 04:20
  
  
   Wind: ZW 16.7 km/h
Wind: ZW 16.7 km/h
Temperatuur: 4°C
Voelt als: 0°C
Dauwpunt: 1°C
Vochtigheid: 81%
Barometer: 1018 hPa
ETWM 180320Z AUTO 23009KT //// // ////// 04/01 Q1018 ///
EHGG - Groningen/Eelde, Netherlands
Afstand tot: NNW 47 km
Gewijzigd: 18-01-2020 04:25
Helder  
Helder  
   Wind: ZZW 20.4 km/h
Wind: ZZW 20.4 km/h
Temperatuur: 4°C
Voelt als: 0°C
Dauwpunt: 2°C
Vochtigheid: 87%
Barometer: 1017 hPa
Bewolking: Helder
Zicht: meer dan 10 km
Bewolking: Helder
EHGG 180325Z AUTO 21011KT 9999 NCD 04/02 Q1017
EDDG - Muenster/Osnabru, Germany
Afstand tot: ZO 87 km
Gewijzigd: 18-01-2020 04:20
Helder  
Helder  
   Wind: ZZW 13 km/h
Wind: ZZW 13 km/h
Temperatuur: 4°C
Voelt als: 1°C
Dauwpunt: 1°C
Vochtigheid: 81%
Barometer: 1020 hPa
Zicht: meer dan 10 km
Bewolking: Helder
EDDG 180320Z 20007KT 170V240 CAVOK 04/01 Q1020 NOSIG
EHLW - Leeuwarden Rnlaf, Netherlands
Afstand tot: NW 93 km
Gewijzigd: 18-01-2020 04:25
Gedeeltelijk bewolkt  
Gedeeltelijk bewolkt  
   Wind: ZW 16.7 km/h
Wind: ZW 16.7 km/h
Temperatuur: 4°C
Voelt als: 0°C
Dauwpunt: 3°C
Vochtigheid: 93%
Barometer: 1016 hPa
Bewolking: Gedeeltelijk bewolkt
Zicht: meer dan 10 km
Bewolking: Gedeeltelijk bewolkt 1900 ft
EHLW 180325Z AUTO 22009KT 9999 SCT019 04/03 Q1016 WHT
ETNT - Wittmundhaven(Ga, Germany
Afstand tot: NNO 100 km
Gewijzigd: 18-01-2020 04:20
Licht bewolkt  
Licht bewolkt  
   Wind: ZW 24.1 km/h
Wind: ZW 24.1 km/h
Temperatuur: 4°C
Voelt als: -1°C
Dauwpunt: 2°C
Vochtigheid: 87%
Barometer: 1016 hPa
Bewolking: Licht bewolkt
Zicht: meer dan 10 km
Bewolking: Licht bewolkt 2300 ft
ETNT 180320Z 23013KT 9999 FEW023 04/02 Q1016 BLU+
ETND - Diepholz (ger-Af, Germany
Afstand tot: O 104 km
Gewijzigd: 17-01-2020 11:20
Verouderd
Gedeeltelijk bewolkt  
Gedeeltelijk bewolkt  
   Wind: Zuiden 11.1 km/h
Wind: Zuiden 11.1 km/h
Temperatuur: 8°C
Voelt als: 6°C
Dauwpunt: 5°C
Vochtigheid: 82%
Barometer: 1015 hPa
Bewolking: Gedeeltelijk bewolkt
Zicht: meer dan 10 km
Bewolking: Licht bewolkt 7000 ft,
Gedeeltelijk bewolkt 9000 ft
ETND 171020Z 19006KT 9999 FEW070 SCT090 08/05 Q1015 BLU+
ETNT - Wittmundhaven(Ga, Germany
Afstand tot: NNO 102 km
Gewijzigd: 18-01-2020 04:20
Licht bewolkt  
Licht bewolkt  
   Wind: ZW 24.1 km/h
Wind: ZW 24.1 km/h
Temperatuur: 4°C
Voelt als: -1°C
Dauwpunt: 2°C
Vochtigheid: 87%
Barometer: 1016 hPa
Bewolking: Licht bewolkt
Zicht: meer dan 10 km
Bewolking: Licht bewolkt 2300 ft
ETNT 180320Z 23013KT 9999 FEW023 04/02 Q1016 BLU+
EHDL - Deelen Rnlafb, Netherlands
Afstand tot: ZW 103 km
Gewijzigd: 18-01-2020 04:25
Bewolking  
Bewolking  
   Wind: ZZW 18.5 km/h
Wind: ZZW 18.5 km/h
Temperatuur: 4°C
Voelt als: 0°C
Dauwpunt: 3°C
Vochtigheid: 93%
Barometer: 1020 hPa
Bewolking: Bewolking
Zicht: meer dan 10 km
Bewolking: Licht bewolkt 2400 ft,
Bewolking 3700 ft
EHDL 180325Z AUTO 21010KT 170V250 9999 FEW024 OVC037 04/03 Q1020 BLU
EHMA - Awg-1 Sea, Netherlands
Afstand tot: NW 105 km
Gewijzigd: 18-01-2020 04:25
Licht bewolkt  
Licht bewolkt  
   Wind: WZW 37 km/h
Wind: WZW 37 km/h
Temperatuur: 7°C
Voelt als: 2°C
Dauwpunt: 3°C
Vochtigheid: 76%
Barometer: 1016 hPa
Bewolking: Licht bewolkt
Zicht: meer dan 10 km
Bewolking: Licht bewolkt 2000 ft
EHMA 180325Z AUTO 25020KT 9999 FEW020 07/03 Q1016
EDDW - Bremen, Germany
Afstand tot: ONO 135 km
Gewijzigd: 18-01-2020 04:20
Gedeeltelijk bewolkt  
Gedeeltelijk bewolkt  
   Wind: WZW 22.2 km/h
Wind: WZW 22.2 km/h
Temperatuur: 5°C
Voelt als: 1°C
Dauwpunt: 2°C
Vochtigheid: 81%
Barometer: 1018 hPa
Bewolking: Gedeeltelijk bewolkt
Zicht: meer dan 10 km
Bewolking: Gedeeltelijk bewolkt 2600 ft
EDDW 180320Z 24012KT 9999 SCT026 05/02 Q1018
EHVL - Vlieland Island, Netherlands
Afstand tot: WNW 138 km
Gewijzigd: 18-01-2020 04:49
Gedeeltelijk bewolkt  
Gedeeltelijk bewolkt  
   Wind: WZW 44.4 km/h
Wind: WZW 44.4 km/h
Temperatuur: 7°C
Voelt als: 2°C
Dauwpunt: 3°C
Vochtigheid: 76%
Barometer: 1016 hPa
Bewolking: Gedeeltelijk bewolkt
Zicht: meer dan 10 km
Bewolking: Licht bewolkt 1700 ft,
Gedeeltelijk bewolkt 2400 ft
EHVL 180349Z AUTO 25024KT 9999 FEW017 SCT024 07/03 Q1016 WHT
EDLV - Niederrhein, Germany
Afstand tot: ZZW 139 km
Gewijzigd: 17-01-2020 23:50
Verouderd
Helder  
Helder  
   Wind: WZW 14.8 km/h
Wind: WZW 14.8 km/h
Temperatuur: 5°C
Voelt als: 2°C
Dauwpunt: 1°C
Vochtigheid: 76%
Barometer: 1019 hPa
Zicht: meer dan 10 km
Bewolking: Helder
EDLV 172250Z 24008KT CAVOK 05/01 Q1019
EHKD - De Kooy (navy), Netherlands
Afstand tot: W 144 km
Gewijzigd: 18-01-2020 04:33
Grotendeels bewolkt  
Grotendeels bewolkt  
   Wind: WZW 29.6 km/h
Wind: WZW 29.6 km/h
Temperatuur: 7°C
Voelt als: 3°C
Dauwpunt: 4°C
Vochtigheid: 81%
Barometer: 1017 hPa
Bewolking: Grotendeels bewolkt
Zicht: meer dan 10 km
Bewolking: Gedeeltelijk bewolkt 1600 ft,
Grotendeels bewolkt 1900 ft
EHKD 180333Z AUTO 25016KT 220V280 9999 SCT016 BKN019 07/04 Q1017 WHT
EDLW - Dortmund/Wickede, Germany
Afstand tot: ZZO 150 km
Gewijzigd: 18-01-2020 04:20
Grotendeels bewolkt  
Grotendeels bewolkt  
   Wind: ZZW 22.2 km/h
Wind: ZZW 22.2 km/h
Temperatuur: 5°C
Voelt als: 1°C
Dauwpunt: 2°C
Vochtigheid: 81%
Barometer: 1021 hPa
Bewolking: Grotendeels bewolkt
Zicht: meer dan 10 km
Bewolking: Gedeeltelijk bewolkt 1600 ft,
Gedeeltelijk bewolkt 3200 ft,
Grotendeels bewolkt 4500 ft
EDLW 180320Z AUTO 21012KT 9999 // SCT016/// SCT032/// BKN045/// 05/02 Q1021
EHVK - Volkel Rnlafb, Netherlands
Afstand tot: ZZW 149 km
Gewijzigd: 18-01-2020 04:25
Licht bewolkt  
Licht bewolkt  
   Wind: ZZW 20.4 km/h
Wind: ZZW 20.4 km/h
Temperatuur: 4°C
Voelt als: 0°C
Dauwpunt: 2°C
Vochtigheid: 87%
Barometer: 1021 hPa
Bewolking: Licht bewolkt
Zicht: meer dan 10 km
Bewolking: Licht bewolkt 3600 ft
EHVK 180325Z AUTO 21011KT 9999 FEW036 04/02 Q1021 BLU
EDLW - Dortmund/Wickede, Germany
Afstand tot: ZZO 150 km
Gewijzigd: 18-01-2020 04:20
Grotendeels bewolkt  
Grotendeels bewolkt  
   Wind: ZZW 22.2 km/h
Wind: ZZW 22.2 km/h
Temperatuur: 5°C
Voelt als: 1°C
Dauwpunt: 2°C
Vochtigheid: 81%
Barometer: 1021 hPa
Bewolking: Grotendeels bewolkt
Zicht: meer dan 10 km
Bewolking: Gedeeltelijk bewolkt 1600 ft,
Gedeeltelijk bewolkt 3200 ft,
Grotendeels bewolkt 4500 ft
EDLW 180320Z AUTO 21012KT 9999 // SCT016/// SCT032/// BKN045/// 05/02 Q1021
EHMG - L9-Ff-1 Sea, Netherlands
Afstand tot: NW 155 km
Gewijzigd: 18-01-2020 04:25
Gedeeltelijk bewolkt  
Gedeeltelijk bewolkt  
   Wind: WZW 53.7 km/h
Wind: WZW 53.7 km/h
Temperatuur: 7°C
Voelt als: 1°C
Dauwpunt: 3°C
Vochtigheid: 76%
Barometer: 1016 hPa
Bewolking: Gedeeltelijk bewolkt
Zicht: meer dan 10 km
Bewolking: Licht bewolkt 1700 ft,
Gedeeltelijk bewolkt 3700 ft
EHMG 180325Z AUTO 25029KT 9999 FEW017 SCT037 07/03 Q1016
ETHB - Buckeburg(Ger-Ar, Germany
Afstand tot: OZO 161 km
Gewijzigd: 18-01-2020 04:20
  
  
   Wind: WZW 24.1 km/h
Wind: WZW 24.1 km/h
Temperatuur: 5°C
Voelt als: 1°C
Dauwpunt: 1°C
Vochtigheid: 76%
Barometer: 1019 hPa
Zicht: meer dan 10 km
ETHB 180320Z AUTO 25013KT 9999 // ////// 05/01 Q1019 ///
ETMN - Nordholz (ger-Na, Germany
Afstand tot: NO 164 km
Gewijzigd: 18-01-2020 04:47
Gedeeltelijk bewolkt  
Gedeeltelijk bewolkt  
   Wind: WZW 22.2 km/h
Wind: WZW 22.2 km/h
Temperatuur: 5°C
Voelt als: 1°C
Dauwpunt: 2°C
Vochtigheid: 81%
Barometer: 1016 hPa
Bewolking: Gedeeltelijk bewolkt
Zicht: meer dan 10 km
Bewolking: Gedeeltelijk bewolkt 2300 ft
ETMN 180347Z 24012KT 9999 SCT023 05/02 Q1016 BLU+
EDDL - Duesseldorf, Germany
Afstand tot: Z 165 km
Gewijzigd: 18-01-2020 04:20
Licht bewolkt  
Licht bewolkt  
   Wind: ZZW 18.5 km/h
Wind: ZZW 18.5 km/h
Temperatuur: 4°C
Voelt als: 0°C
Dauwpunt: 2°C
Vochtigheid: 87%
Barometer: 1022 hPa
Bewolking: Licht bewolkt
Zicht: meer dan 10 km
Bewolking: Licht bewolkt 2700 ft
EDDL 180320Z 21010KT 9999 FEW027 04/02 Q1022 NOSIG
EDLN - Monchengladbach, Germany
Afstand tot: Z 174 km
Gewijzigd: 18-01-2020 04:20
Helder  
Helder  
   Wind: ZW 13 km/h
Wind: ZW 13 km/h
Temperatuur: 4°C
Voelt als: 1°C
Dauwpunt: 1°C
Vochtigheid: 81%
Barometer: 1022 hPa
Bewolking: Helder
Zicht: meer dan 10 km
Bewolking: Helder
EDLN 180320Z AUTO 23007KT 210V270 9999 // NCD 04/01 Q1022

Script ontwikkeld door  Saratoga-weather.org Aangepast voor de template door  Weerstation Leuven

U vindt ons ook hier:

Het Weer Aktueel

European Weather Network

Weather Underground

Wetterpage 24

Apparatuur in gebruik:

Weerstation
Davis VP2

Weerprogramma
Meteohub

Hardware
RaspberryPI, Wireless Weather Envoy, MeteoStick, TP-Link MR3020

Leverancier
Weerhuisje.nl weerstations

Davis VP2

Meteohub

RaspberryPI, Wireless Weather Envoy, MeteoStick, TP-Link MR3020

Weerhuisje.nl weerstations